Latest Weather Observations for Browse Island

IDW60801

Issued at 5:02 am WST Sunday 14 February 2016 (issued every 30 minutes, with the page automatically refreshed every 10 minutes)

About weather observations | Map of weather stations | Latest weather observations for WA | Other Formats
Station Details ID: 200784 Name: BROWSE ISLAND Lat: -14.11 Lon: 123.55 Height: 3.7 m
Data from the previous 72 hours. | See also: Recent months at Browse Island
Date/Time
WST
Temp
°C
App
Temp
°C
Dew
Point
Rel
Hum
%
Delta-T
°C
Wind Press
QNH
hPa
Press
MSL
hPa
Rain
since 9 am
mm
Dir
 
Spd
km/h
Gust
km/h
Spd
kts
Gust
kts
14/05:00am 28.8 - - - - WSW 15 15 8 8 1008.0 1008.6 -
14/04:30am 29.0 - - - - WSW 11 13 6 7 1008.0 - -
14/04:00am 28.7 - - - - WSW 11 - 6 - 1008.0 1008.1 -
14/03:30am 29.0 - - - - WSW 13 - 7 - 1008.0 - -
14/03:00am 28.8 - - - - W 13 - 7 - 1008.0 1007.9 -
14/02:30am 29.0 - - - - W 17 - 9 - 1007.0 - -
14/02:00am 28.9 - - - - W 19 - 10 - 1007.0 1007.6 -
14/01:30am 29.0 - - - - W 19 - 10 - 1007.0 - -
14/01:00am 28.9 - - - - W 17 - 9 - 1008.0 1008.3 -
14/12:30am 29.0 - - - - W 15 - 8 - 1008.0 - -
14/12:00am 28.9 - - - - SW 15 - 8 - 1009.0 1008.9 -
 
Date/Time
WST
Temp
°C
App
Temp
°C
Dew
Point
Rel
Hum
%
Delta-T
°C
Wind Press
QNH
hPa
Press
MSL
hPa
Rain
since 9 am
mm
Dir
 
Spd
km/h
Gust
km/h
Spd
kts
Gust
kts
13/11:30pm 29.0 - - - - WSW 13 - 7 - 1009.0 - -
13/11:00pm 29.1 - - - - SW 15 - 8 - 1010.0 1010.0 -
13/10:30pm 29.0 - - - - SW 15 - 8 - 1010.0 - -
13/10:00pm 29.1 - - - - SSW 15 - 8 - 1010.0 1010.8 -
13/09:30pm 29.0 - - - - SW 17 - 9 - 1010.0 - -
13/09:00pm 29.3 - - - - SSW 19 - 10 - 1010.0 1010.8 -
13/08:30pm 29.0 - - - - SSW 20 - 11 - 1010.0 - -
13/08:00pm 29.4 - - - - SW 22 - 12 - 1010.0 1010.5 -
13/07:30pm 30.0 - - - - SW 22 - 12 - 1010.0 - -
13/07:00pm 29.5 - - - - WSW 24 - 13 - 1009.0 1009.0 -
13/06:30pm 29.0 - - - - SW 22 - 12 - 1008.0 - -
13/06:00pm 29.5 - - - - SW 20 - 11 - 1008.0 1008.2 -
13/05:30pm 30.0 - - - - SW 22 - 12 - 1008.0 - -
13/05:00pm 29.7 - - - - SW 24 - 13 - 1007.0 1007.8 -
13/04:30pm 30.0 - - - - SW 22 - 12 - 1008.0 - -
13/04:00pm 29.6 - - - - SW 24 - 13 - 1008.0 1007.9 -
13/03:30pm 30.0 - - - - SW 26 - 14 - 1008.0 - -
13/03:00pm 29.6 - - - - SW 26 - 14 - 1008.0 1008.0 -
13/02:30pm 30.0 - - - - SW 26 - 14 - 1008.0 - -
13/02:00pm 29.6 - - - - SW 28 - 15 - 1008.0 1008.5 -
13/01:30pm 30.0 - - - - SW 26 - 14 - 1008.0 - -
13/01:00pm 29.7 - - - - SW 24 - 13 - 1009.0 1008.9 -
13/12:30pm 30.0 - - - - SW 22 - 12 - 1009.0 - -
13/12:00pm 29.7 - - - - WSW 20 - 11 - 1009.0 1009.4 -
13/11:30am 30.0 - - - - WSW 20 - 11 - 1009.0 - -
13/11:00am 29.4 - - - - WSW 22 - 12 - 1010.0 1009.9 -
13/10:30am 29.0 - - - - WSW 19 - 10 - 1010.0 - -
13/10:00am 29.7 - - - - SW 17 - 9 - 1010.0 1010.3 -
13/09:30am 29.0 - - - - SW 17 - 9 - 1010.0 - -
13/09:00am 29.2 - - - - WSW 17 - 9 - 1010.0 1010.5 -
13/08:30am 29.0 - - - - WSW 17 - 9 - 1010.0 - -
13/08:00am 29.1 - - - - WSW 17 - 9 - 1010.0 1010.7 -
13/07:30am 29.0 - - - - WSW 17 - 9 - 1010.0 - -
13/07:00am 28.9 - - - - WSW 15 - 8 - 1010.0 1010.2 -
13/06:30am 29.0 - - - - WSW 13 - 7 - 1010.0 - -
13/06:00am 28.9 - - - - WSW 19 - 10 - 1009.0 1009.7 -
13/05:30am 29.0 - - - - WSW 17 - 9 - 1009.0 - -
13/05:00am 29.2 - - - - W 17 - 9 - 1009.0 1009.0 -
13/04:30am 29.0 - - - - W 20 - 11 - 1008.0 - -
13/04:00am 28.9 - - - - W 20 - 11 - 1008.0 1008.5 -
13/03:30am 29.0 - - - - WNW 22 - 12 - 1008.0 - -
13/03:00am 28.4 - - - - NW 24 - 13 - 1008.0 1008.2 -
13/02:30am 28.0 - - - - WNW 19 - 10 - 1008.0 - -
13/02:00am 28.2 - - - - WNW 17 - 9 - 1008.0 1008.2 -
13/01:30am 28.0 - - - - W 19 - 10 - 1009.0 - -
13/01:00am 28.5 - - - - W 24 - 13 - 1009.0 1009.1 -
13/12:30am 29.0 - - - - W 24 - 13 - 1009.0 - -
13/12:00am 28.8 - - - - WSW 24 - 13 - 1009.0 1009.7 -
 
Date/Time
WST
Temp
°C
App
Temp
°C
Dew
Point
Rel
Hum
%
Delta-T
°C
Wind Press
QNH
hPa
Press
MSL
hPa
Rain
since 9 am
mm
Dir
 
Spd
km/h
Gust
km/h
Spd
kts
Gust
kts
12/11:30pm 28.0 - - - - WSW 22 - 12 - 1010.0 - -
12/11:00pm 28.0 - - - - WSW 24 - 13 - 1010.0 1010.5 -
12/10:30pm 28.0 - - - - SW 20 - 11 - 1010.0 - -
12/10:00pm 27.6 - - - - WSW 28 - 15 - 1010.0 1010.8 -
12/09:30pm 27.0 - - - - WSW 26 - 14 - 1010.0 - -
12/09:00pm 27.3 - - - - SW 26 - 14 - 1010.0 1010.4 -
12/08:30pm 27.0 - - - - SW 20 - 11 - 1010.0 - -
12/08:00pm 26.6 - - - - SSW 17 - 9 - 1010.0 1010.7 -
12/07:39pm 26.0 - - - - S 28 - 15 - 1010.0 - -
12/07:30pm 26.0 - - - - SSE 39 - 21 - 1010.0 - -
12/07:05pm 26.0 - - - - SE 46 65 25 35 1009.0 - -
12/07:03pm 27.0 - - - - SSE 43 - 23 - 1010.0 - -
12/07:00pm 29.6 - - - - S 20 - 11 - 1010.0 1009.9 -
12/06:30pm 30.0 - - - - WSW 20 - 11 - 1009.0 - -
12/06:00pm 29.8 - - - - W 22 - 12 - 1008.0 1008.4 -
12/05:30pm 30.0 - - - - W 24 - 13 - 1007.0 - -
12/05:00pm 30.0 - - - - W 26 - 14 - 1007.0 1007.4 -
12/04:30pm 30.0 - - - - W 28 - 15 - 1007.0 - -
12/04:00pm 30.0 - - - - W 28 - 15 - 1006.0 1006.6 -
12/03:30pm 30.0 - - - - W 32 - 17 - 1006.0 - -
12/03:00pm 29.9 - - - - W 30 - 16 - 1006.0 1006.4 -
12/02:30pm 30.0 - - - - W 24 - 13 - 1007.0 - -
12/02:00pm 29.7 - - - - W 26 - 14 - 1007.0 1007.3 -
12/01:30pm 30.0 - - - - W 26 - 14 - 1007.0 - -
12/01:00pm 29.8 - - - - WSW 26 - 14 - 1007.0 1007.7 -
12/12:30pm 30.0 - - - - W 28 - 15 - 1007.0 - -
12/12:00pm 29.8 - - - - W 26 - 14 - 1008.0 1008.1 -
12/11:30am 30.0 - - - - W 28 - 15 - 1008.0 - -
12/11:00am 29.8 - - - - W 26 - 14 - 1008.0 1008.8 -
12/10:30am 30.0 - - - - WSW 24 - 13 - 1009.0 - -
12/10:00am 29.7 - - - - WSW 26 - 14 - 1009.0 1009.2 -
12/09:30am 30.0 - - - - WSW 22 - 12 - 1009.0 - -
12/09:00am 29.6 - - - - WSW 22 - 12 - 1009.0 1009.8 -
12/08:30am 30.0 - - - - WSW 24 - 13 - 1009.0 - -
12/08:00am 29.4 - - - - WSW 28 - 15 - 1009.0 1009.6 -
12/07:30am 30.0 - - - - WSW 32 - 17 - 1009.0 - -
12/07:00am 29.4 - - - - W 33 - 18 - 1008.0 1008.8 -
12/06:30am 29.0 - - - - W 30 - 16 - 1008.0 - -
12/06:00am 29.3 - - - - W 30 - 16 - 1008.0 1008.3 -
12/05:30am 29.0 - - - - W 30 - 16 - 1008.0 - -
12/05:00am 29.3 - - - - W 32 - 17 - 1007.0 1007.7 -
12/04:30am 29.0 - - - - WNW 32 - 17 - 1007.0 - -
12/04:00am 29.4 - - - - WNW 33 - 18 - 1007.0 1007.2 -
12/03:30am 29.0 - - - - WNW 35 - 19 - 1007.0 - -
12/03:00am 29.5 - - - - NW 30 - 16 - 1007.0 1007.5 -
12/02:30am 30.0 - - - - NNW 28 - 15 - 1007.0 - -
12/02:00am 29.6 - - - - N 20 - 11 - 1008.0 1008.6 -
12/01:30am 29.0 - - - - NW 28 - 15 - 1007.0 - -
12/01:00am 29.3 - - - - NW 28 - 15 - 1007.0 1007.8 -
12/12:30am 29.0 - - - - NW 30 - 16 - 1007.0 - -
12/12:20am 29.0 - - - - NW 28 - 15 - 1008.0 - -
12/12:00am 29.3 - - - - SSE 4 - 2 - 1009.0 1009.5 -
 
Date/Time
WST
Temp
°C
App
Temp
°C
Dew
Point
Rel
Hum
%
Delta-T
°C
Wind Press
QNH
hPa
Press
MSL
hPa
Rain
since 9 am
mm
Dir
 
Spd
km/h
Gust
km/h
Spd
kts
Gust
kts
11/11:30pm 29.0 - - - - WNW 28 - 15 - 1008.0 - -
11/11:00pm 29.4 - - - - WNW 28 - 15 - 1008.0 1008.5 -
11/10:30pm 30.0 - - - - WNW 28 - 15 - 1008.0 - -
11/10:00pm 29.7 - - - - W 26 - 14 - 1009.0 1008.9 -
11/09:30pm 30.0 - - - - WNW 26 - 14 - 1008.0 - -
11/09:00pm 29.8 - - - - W 22 - 12 - 1008.0 1008.5 -
11/08:30pm 30.0 - - - - W 20 - 11 - 1008.0 - -
11/08:00pm 29.7 - - - - W 20 - 11 - 1008.0 1008.1 -
11/07:30pm 30.0 - - - - W 19 - 10 - 1008.0 - -
11/07:00pm 29.8 - - - - W 22 - 12 - 1007.0 1007.4 -
11/06:30pm 30.0 - - - - W 22 - 12 - 1007.0 - -
11/06:00pm 29.7 - - - - W 24 - 13 - 1006.0 1006.7 -
11/05:30pm 30.0 - - - - WSW 24 - 13 - 1006.0 - -
11/05:00pm 29.9 - - - - WSW 22 - 12 - 1006.0 1006.2 -
11/04:30pm 30.0 - - - - WSW 20 - 11 - 1006.0 - -
11/04:00pm 29.8 - - - - WSW 22 - 12 - 1005.0 1005.5 -
11/03:30pm 30.0 - - - - WSW 24 - 13 - 1005.0 - -
11/03:00pm 29.9 - - - - WSW 22 - 12 - 1005.0 1005.6 -
11/02:30pm 30.0 - - - - WSW 24 - 13 - 1006.0 - -
11/02:00pm 29.9 - - - - W 28 - 15 - 1005.0 1005.8 -
11/01:30pm 30.0 - - - - W 28 - 15 - 1006.0 - -
11/01:00pm 29.9 - - - - W 28 - 15 - 1006.0 1006.2 -
11/12:30pm 30.0 - - - - W 26 - 14 - 1006.0 - -
11/12:00pm 29.9 - - - - W 26 - 14 - 1006.0 1006.8 -
11/11:30am 30.0 - - - - WSW 26 - 14 - 1007.0 - -
11/11:00am 29.7 - - - - WSW 28 - 15 - 1007.0 1006.9 -
11/10:30am 30.0 - - - - WSW 28 - 15 - 1007.0 - -
11/10:00am 29.5 - - - - WSW 28 - 15 - 1007.0 1007.7 -
11/09:30am 30.0 - - - - WSW 28 - 15 - 1008.0 - -
11/09:00am 29.7 - - - - WSW 28 - 15 - 1008.0 1008.2 -
11/08:30am 29.0 - - - - WSW 28 - 15 - 1008.0 - -
11/08:00am 29.3 - - - - WSW 33 - 18 - 1008.0 1007.9 -
11/07:30am 29.0 - - - - W 28 - 15 - 1007.0 - -
11/07:00am 29.3 - - - - SW 26 - 14 - 1008.0 1008.2 -
11/06:30am 29.0 - - - - SSW 28 - 15 - 1008.0 - -
11/06:00am 29.5 - - - - SSW 33 - 18 - 1008.0 1008.2 -
11/05:30am 29.0 - - - - WSW 30 - 16 - 1007.0 - -

Other Formats:

Comma delimited format used in spreadsheet applications
http://www.bom.gov.au/fwo/IDW60801/IDW60801.94103.axf

JavaScript Object Notation format (JSON) in row-major order
http://www.bom.gov.au/fwo/IDW60801/IDW60801.94103.json